To NAV CANADA Home Page Login to a new session Search on AWWS site Feedback and Comments Disclaimer Vers la page française équivalente Tips FAQ What's new on the site To the Forecasts and Observations / NOTAM section To "File a Flight Plan" website Publications and other links Update of the User's profile FIC Telephone Numbers My Weather Data Folder Route Weather Data Regional Weather Data Local Weather Data To the Forecasts and Observations / NOTAM section
Request Generated 07/26/2017 at 04:27:01 UTC . Weather information available at that time is displayed.

METAR/TAF

If you find any discrepancies between the coded METAR/TAF and the plain language METAR/TAF please use the coded METAR/TAF. LWIS bulletins are not decoded in plain language.

VANCOUVER INTL/BC    (show WxCam)

METAR CYVR 260400Z 21004KT 30SM SKC 19/15 A2996 RMK SLP148 DENSITY ALT 500FT=
METAR
LOCATION
CYVR - VANCOUVER INTL/BC
DATE - TIME
26 JULY 2017 - 0400 UTC
WIND
210 TRUE @ 4  KNOTS
VISIBILITY
30 STAT.  MILES
RUNWAY VISUAL RANGE
WEATHER
CLOUDINESS
CLEAR SKY
TEMP / DEWPOINT
19 C / 15 C
ALTIMETER
29.96 IN HG
RECENT WEATHER
WIND SHEAR

METAR CYVR 260300Z 29003KT 30SM SKC 21/15 A2996 RMK SLP148 DENSITY ALT 700FT=
METAR
LOCATION
CYVR - VANCOUVER INTL/BC
DATE - TIME
26 JULY 2017 - 0300 UTC
WIND
290 TRUE @ 3  KNOTS
VISIBILITY
30 STAT.  MILES
RUNWAY VISUAL RANGE
WEATHER
CLOUDINESS
CLEAR SKY
TEMP / DEWPOINT
21 C / 15 C
ALTIMETER
29.96 IN HG
RECENT WEATHER
WIND SHEAR

METAR CYVR 260200Z 30005KT 30SM SKC 21/15 A2997 RMK SLP149 DENSITY ALT 700FT=
METAR
LOCATION
CYVR - VANCOUVER INTL/BC
DATE - TIME
26 JULY 2017 - 0200 UTC
WIND
300 TRUE @ 5  KNOTS
VISIBILITY
30 STAT.  MILES
RUNWAY VISUAL RANGE
WEATHER
CLOUDINESS
CLEAR SKY
TEMP / DEWPOINT
21 C / 15 C
ALTIMETER
29.97 IN HG
RECENT WEATHER
WIND SHEAR

TAF CYVR 260238Z 2603/2706 VRB03KT P6SM FEW050 FEW240 FM260900 10007KT P6SM FEW050 SCT150 FM261900 17008KT P6SM FEW040 RMK NXT FCST BY 260600Z=
TAF
LOCATION

CYVR - VANCOUVER INTL/BC
VALIDITY [UTC]
26 JUL - 0238 to
27 JUL - 0600
 
TIMES
[UTC]
WIND
[DEGREES TRUE]
VISIBILITY
[STAT. MILES]
WEATHER
CLOUDINESS
[FEET AGL]
 
26 JUL - 0300 to
26 JUL - 0900
VARIABLE @ 3 KNOTS
6+
NIL
5000 FEW
 
26 JUL - 0900 to
26 JUL - 1900
100 @ 7 KNOTS
6+
NIL
5000 FEW
15000 SCATTERED
 
26 JUL - 1900 to
27 JUL - 0600
170 @ 8 KNOTS
6+
NIL
4000 FEW
REMARKS
THE NEXT FORECAST WILL BE ISSUED BY 0600 UTC ON DAY 26


Your time UTC time
Weather data provided by Environment Canada and NAV CANADA